Time;durP1;ratioP1;P1;durP2;ratioP2;P2;SDS_P1;SDS_P2;PMS_P1;PMS_P2;Temp;Humidity;BMP_temperature;BMP_pressure;BME280_temperature;BME280_humidity;BME280_pressure;Samples;Min_cycle;Max_cycle;Signal;HPM_P1;HPM_P2
2022/04/08 00:01:15;;;;;;;;;;;8.10;99.90;;;;;;2621395;46;19935;31
2022/04/08 00:03:53;;;;;;;;;;;8.00;99.90;;;;;;2602700;54;19977;31
2022/04/08 00:06:31;;;;;;;;;;;8.00;99.90;;;;;;2602620;54;20762;31
2022/04/08 00:09:06;;;;;;;;;;;8.00;99.90;;;;;;2602785;54;19939;31
2022/04/08 00:11:43;;;;;;;;;;;8.00;99.90;;;;;;2601910;54;19980;31
2022/04/08 00:14:21;;;;;;;;;;;7.90;99.90;;;;;;2602625;54;19935;31
2022/04/08 00:16:56;;;;;;;;;;;8.20;99.90;;;;;;2602540;54;19940;31
2022/04/08 00:19:36;;;;;;;;;;;7.90;99.90;;;;;;2615129;46;20809;31
2022/04/08 00:22:13;;;;;;;;;;;7.90;99.90;;;;;;2602740;54;19941;31
2022/04/08 00:24:48;;;;;;;;;;;7.90;99.90;;;;;;2621678;46;20756;31
2022/04/08 00:27:24;;;;;;;;;;;7.80;99.90;;;;;;2602095;54;20792;31
2022/04/08 00:29:58;;;;;;;;;;;7.80;99.90;;;;;;2602697;54;19935;31
2022/04/08 00:32:33;;;;;;;;;;;7.80;99.90;;;;;;2602851;54;19934;31
2022/04/08 00:35:11;;;;;;;;;;;7.80;99.90;;;;;;2602893;54;19957;31
2022/04/08 00:37:47;;;;;;;;;;;7.80;99.90;;;;;;2603024;54;19935;31
2022/04/08 00:40:22;;;;;;;;;;;7.80;99.90;;;;;;2602022;54;19950;31
2022/04/08 00:42:57;;;;;;;;;;;7.80;99.90;;;;;;2619800;46;20009;31
2022/04/08 00:45:32;;;;;;;;;;;8.60;99.90;;;;;;2618371;46;19934;31
2022/04/08 00:48:10;;;;;;;;;;;7.80;99.90;;;;;;2618404;46;19943;31
2022/04/08 00:50:48;;;;;;;;;;;7.80;99.90;;;;;;2602680;54;19942;31
2022/04/08 00:53:25;;;;;;;;;;;7.80;99.90;;;;;;2602624;54;19985;31
2022/04/08 00:56:01;;;;;;;;;;;7.70;99.90;;;;;;2602373;54;19941;31
2022/04/08 00:58:36;;;;;;;;;;;7.70;99.90;;;;;;2621502;47;19942;31
2022/04/08 01:01:10;;;;;;;;;;;7.70;99.90;;;;;;2602454;54;20025;31
2022/04/08 01:03:47;;;;;;;;;;;7.70;99.90;;;;;;2602642;54;19941;31
2022/04/08 01:06:26;;;;;;;;;;;7.60;99.90;;;;;;2602776;54;20731;31
2022/04/08 01:09:02;;;;;;;;;;;7.70;99.90;;;;;;2620909;47;20721;31
2022/04/08 01:11:37;;;;;;;;;;;7.70;99.90;;;;;;2621085;47;20815;31
2022/04/08 01:14:11;;;;;;;;;;;7.60;99.90;;;;;;2621026;47;19935;31
2022/04/08 01:16:43;;;;;;;;;;;7.60;99.90;;;;;;2602625;54;22094;31
2022/04/08 01:19:18;;;;;;;;;;;7.60;99.90;;;;;;2602518;54;19941;31
2022/04/08 01:21:55;;;;;;;;;;;7.60;99.90;;;;;;2701275;39;22219;31
2022/04/08 01:24:29;;;;;;;;;;;7.60;99.90;;;;;;2602494;54;20005;31
2022/04/08 01:27:06;;;;;;;;;;;9.20;99.90;;;;;;2602535;54;19966;31
2022/04/08 01:29:48;;;;;;;;;;;7.60;99.90;;;;;;2602723;54;20767;31
2022/04/08 01:32:22;;;;;;;;;;;7.60;99.90;;;;;;2602368;54;19935;31
2022/04/08 01:35:01;;;;;;;;;;;7.60;99.90;;;;;;2603122;54;20779;31
2022/04/08 01:37:37;;;;;;;;;;;7.50;99.90;;;;;;2603198;54;19939;31
2022/04/08 01:40:14;;;;;;;;;;;7.50;99.90;;;;;;2621936;46;19941;31
2022/04/08 01:42:51;;;;;;;;;;;7.50;99.90;;;;;;2621929;46;19966;31
2022/04/08 01:45:29;;;;;;;;;;;7.40;99.90;;;;;;2603313;54;20751;31
2022/04/08 01:48:06;;;;;;;;;;;7.40;99.90;;;;;;2603361;54;20756;31
2022/04/08 01:50:41;;;;;;;;;;;7.40;99.90;;;;;;2610948;46;19981;31
2022/04/08 01:53:18;;;;;;;;;;;7.40;99.90;;;;;;2621599;46;19986;31
2022/04/08 01:55:53;;;;;;;;;;;7.30;99.90;;;;;;2603251;54;20013;31
2022/04/08 01:58:28;;;;;;;;;;;7.40;99.90;;;;;;2603200;54;19941;31
2022/04/08 02:01:06;;;;;;;;;;;7.30;99.90;;;;;;2603405;54;20769;31
2022/04/08 02:03:42;;;;;;;;;;;7.30;99.90;;;;;;2621951;46;20764;31
2022/04/08 02:06:18;;;;;;;;;;;7.30;99.90;;;;;;2621803;46;19935;31
2022/04/08 02:08:53;;;;;;;;;;;7.30;99.90;;;;;;2702095;39;22425;31
2022/04/08 02:11:30;;;;;;;;;;;7.30;99.90;;;;;;2621917;46;20748;31
2022/04/08 02:14:05;;;;;;;;;;;7.30;99.90;;;;;;2603087;54;19941;31
2022/04/08 02:16:43;;;;;;;;;;;7.30;99.90;;;;;;2621743;46;19934;31
2022/04/08 02:19:17;;;;;;;;;;;7.30;99.90;;;;;;2603211;54;19946;31
2022/04/08 02:21:55;;;;;;;;;;;7.30;99.90;;;;;;2603068;54;20735;31
2022/04/08 02:24:28;;;;;;;;;;;7.20;99.90;;;;;;2603403;54;21101;31
2022/04/08 02:27:06;;;;;;;;;;;7.20;99.90;;;;;;2621565;46;19990;31
2022/04/08 02:29:41;;;;;;;;;;;7.20;99.90;;;;;;2603001;54;19981;31
2022/04/08 02:32:20;;;;;;;;;;;7.20;99.90;;;;;;2602930;54;19941;31
2022/04/08 02:34:57;;;;;;;;;;;7.20;99.90;;;;;;2602690;54;19935;31
2022/04/08 02:37:34;;;;;;;;;;;7.20;99.90;;;;;;2602647;54;20777;31
2022/04/08 02:40:10;;;;;;;;;;;7.20;99.90;;;;;;2621520;46;19935;31
2022/04/08 02:42:46;;;;;;;;;;;7.20;99.90;;;;;;2602963;54;20844;31
2022/04/08 02:45:21;;;;;;;;;;;7.20;99.90;;;;;;2603220;54;19935;31
2022/04/08 02:48:00;;;;;;;;;;;7.20;99.90;;;;;;2603260;54;19941;31
2022/04/08 02:50:35;;;;;;;;;;;7.10;99.90;;;;;;2603122;54;19934;31
2022/04/08 02:53:13;;;;;;;;;;;7.10;99.90;;;;;;2603039;54;20774;31
2022/04/08 02:55:50;;;;;;;;;;;7.10;99.90;;;;;;2603115;54;20783;31
2022/04/08 02:58:27;;;;;;;;;;;7.10;99.90;;;;;;2603108;54;19935;31
2022/04/08 03:01:02;;;;;;;;;;;7.10;99.90;;;;;;2603138;54;19934;31
2022/04/08 03:03:41;;;;;;;;;;;7.10;99.90;;;;;;2603005;54;20775;31
2022/04/08 03:06:16;;;;;;;;;;;7.10;99.90;;;;;;2602802;54;19983;31
2022/04/08 03:08:52;;;;;;;;;;;7.10;99.90;;;;;;2602999;54;20752;31
2022/04/08 03:11:27;;;;;;;;;;;7.10;99.90;;;;;;2621754;46;19939;31
2022/04/08 03:14:03;;;;;;;;;;;7.20;99.90;;;;;;2610696;46;19941;31
2022/04/08 03:16:38;;;;;;;;;;;7.20;99.90;;;;;;2621524;46;19938;31
2022/04/08 03:19:15;;;;;;;;;;;7.30;99.90;;;;;;2621897;46;19939;31
2022/04/08 03:21:50;;;;;;;;;;;7.30;99.90;;;;;;2602778;54;19934;31
2022/04/08 03:24:30;;;;;;;;;;;7.30;99.90;;;;;;2712383;39;21088;31
2022/04/08 03:27:07;;;;;;;;;;;7.40;99.90;;;;;;2602531;54;20567;31
2022/04/08 03:29:42;;;;;;;;;;;7.40;99.90;;;;;;2602361;54;19943;31
2022/04/08 03:32:18;;;;;;;;;;;7.50;99.90;;;;;;2602146;54;19942;31
2022/04/08 03:35:05;;;;;;;;;;;7.50;99.90;;;;;;2602771;54;19942;31
2022/04/08 03:37:45;;;;;;;;;;;8.80;99.90;;;;;;2602939;54;20783;31
2022/04/08 03:40:23;;;;;;;;;;;7.60;99.90;;;;;;2602875;54;20864;31
2022/04/08 03:42:56;;;;;;;;;;;7.60;99.90;;;;;;2603134;54;20765;31
2022/04/08 03:45:33;;;;;;;;;;;7.60;99.90;;;;;;2621700;46;19956;31
2022/04/08 03:48:09;;;;;;;;;;;7.70;99.90;;;;;;2603037;54;19935;31
2022/04/08 03:50:43;;;;;;;;;;;7.70;99.90;;;;;;2621418;46;19945;31
2022/04/08 03:53:23;;;;;;;;;;;7.70;99.90;;;;;;2602612;54;19982;31
2022/04/08 03:55:58;;;;;;;;;;;7.80;99.90;;;;;;2603079;54;20110;31
2022/04/08 03:58:33;;;;;;;;;;;7.80;99.90;;;;;;2603134;54;20753;31
2022/04/08 04:01:11;;;;;;;;;;;7.80;99.90;;;;;;2602921;54;20733;31
2022/04/08 04:03:46;;;;;;;;;;;7.90;99.90;;;;;;2602938;54;20763;31
2022/04/08 04:06:23;;;;;;;;;;;7.90;99.90;;;;;;2621620;46;19957;31
2022/04/08 04:09:01;;;;;;;;;;;7.90;99.90;;;;;;2621193;46;19947;31
2022/04/08 04:11:38;;;;;;;;;;;8.00;99.90;;;;;;2602820;54;20785;31
2022/04/08 04:14:15;;;;;;;;;;;8.00;99.90;;;;;;2602981;54;19934;31
2022/04/08 04:16:52;;;;;;;;;;;8.00;99.90;;;;;;2621293;46;19935;31
2022/04/08 04:19:30;;;;;;;;;;;8.00;99.90;;;;;;2602810;54;20627;31
2022/04/08 04:22:07;;;;;;;;;;;8.00;99.90;;;;;;2602855;54;19935;31
2022/04/08 04:24:44;;;;;;;;;;;8.10;99.90;;;;;;2621124;46;19962;31
2022/04/08 04:27:21;;;;;;;;;;;8.10;99.90;;;;;;2602975;54;20639;31
2022/04/08 04:29:58;;;;;;;;;;;8.10;99.90;;;;;;2616354;46;19943;31
2022/04/08 04:32:38;;;;;;;;;;;8.10;99.90;;;;;;2601687;54;20823;31
2022/04/08 04:35:16;;;;;;;;;;;8.10;99.90;;;;;;2601576;54;20524;31
2022/04/08 04:37:54;;;;;;;;;;;8.10;99.90;;;;;;2620397;46;19941;31
2022/04/08 04:40:32;;;;;;;;;;;8.10;99.90;;;;;;2602914;54;19935;31
2022/04/08 04:43:07;;;;;;;;;;;8.10;99.90;;;;;;2602732;54;19944;31
2022/04/08 04:45:45;;;;;;;;;;;8.20;99.90;;;;;;2602708;54;21300;31
2022/04/08 04:48:22;;;;;;;;;;;8.20;99.90;;;;;;2601965;54;20001;31
2022/04/08 04:51:04;;;;;;;;;;;8.20;99.90;;;;;;2700232;39;20311;31
2022/04/08 04:53:39;;;;;;;;;;;8.20;99.90;;;;;;2604917;46;19942;31
2022/04/08 04:56:15;;;;;;;;;;;8.20;99.90;;;;;;2601644;54;19965;31
2022/04/08 04:58:51;;;;;;;;;;;8.30;99.90;;;;;;2601736;54;20771;31
2022/04/08 05:01:25;;;;;;;;;;;8.30;99.90;;;;;;2620544;47;20817;31
2022/04/08 05:04:00;;;;;;;;;;;8.30;99.90;;;;;;2601662;54;20811;31
2022/04/08 05:06:38;;;;;;;;;;;8.30;99.90;;;;;;2602086;54;19935;31
2022/04/08 05:09:16;;;;;;;;;;;8.30;99.90;;;;;;2602524;54;20651;31
2022/04/08 05:11:52;;;;;;;;;;;8.30;99.90;;;;;;2602775;54;20142;31
2022/04/08 05:14:27;;;;;;;;;;;8.40;99.90;;;;;;2603422;54;20504;31
2022/04/08 05:17:03;;;;;;;;;;;8.40;99.90;;;;;;2603310;54;19934;31
2022/04/08 05:19:35;;;;;;;;;;;9.10;99.90;;;;;;2621982;46;21101;31
2022/04/08 05:22:10;;;;;;;;;;;8.40;99.90;;;;;;2603557;54;20690;31
2022/04/08 05:24:51;;;;;;;;;;;8.40;99.90;;;;;;2622231;46;20639;31
2022/04/08 05:27:26;;;;;;;;;;;8.40;99.90;;;;;;2617742;46;19940;31
2022/04/08 05:30:09;;;;;;;;;;;8.40;99.90;;;;;;2603530;54;19935;31
2022/04/08 05:32:46;;;;;;;;;;;8.40;99.90;;;;;;2603316;54;20006;31
2022/04/08 05:35:21;;;;;;;;;;;9.20;99.90;;;;;;2602664;54;19934;31
2022/04/08 05:37:56;;;;;;;;;;;8.50;99.90;;;;;;2602728;54;20833;31
2022/04/08 05:40:34;;;;;;;;;;;8.60;99.90;;;;;;2621901;46;19957;31
2022/04/08 05:43:10;;;;;;;;;;;8.70;99.90;;;;;;2622202;46;20754;31
2022/04/08 05:45:47;;;;;;;;;;;8.70;99.90;;;;;;2603321;54;19961;31
2022/04/08 05:48:23;;;;;;;;;;;8.80;99.90;;;;;;2603029;54;19942;31
2022/04/08 05:50:58;;;;;;;;;;;8.80;99.90;;;;;;2603093;54;19934;31
2022/04/08 05:56:25;;;;;;;;;;;9.20;99.90;;;;;;2603256;54;19935;31
2022/04/08 05:59:00;;;;;;;;;;;9.20;99.90;;;;;;2621681;46;19941;31
2022/04/08 06:01:38;;;;;;;;;;;9.30;99.90;;;;;;2602384;54;19943;31
2022/04/08 06:04:15;;;;;;;;;;;9.40;99.90;;;;;;2621523;46;20018;31
2022/04/08 06:06:50;;;;;;;;;;;9.40;99.90;;;;;;2603261;54;19994;31
2022/04/08 06:09:29;;;;;;;;;;;9.30;99.90;;;;;;2603424;54;20783;31
2022/04/08 06:12:05;;;;;;;;;;;9.40;99.90;;;;;;2621791;46;19939;31
2022/04/08 06:14:43;;;;;;;;;;;9.40;99.90;;;;;;2603189;54;19935;31
2022/04/08 06:17:18;;;;;;;;;;;9.40;99.90;;;;;;2603296;54;19931;31
2022/04/08 06:19:57;;;;;;;;;;;9.40;99.90;;;;;;2603119;54;19998;31
2022/04/08 06:22:34;;;;;;;;;;;9.30;99.90;;;;;;2603166;54;19946;31
2022/04/08 06:25:11;;;;;;;;;;;9.30;99.90;;;;;;2603099;54;19935;31
2022/04/08 06:27:47;;;;;;;;;;;9.50;99.90;;;;;;2602504;54;19942;31
2022/04/08 06:30:25;;;;;;;;;;;9.60;99.90;;;;;;2621819;46;19935;31
2022/04/08 06:33:00;;;;;;;;;;;9.70;99.90;;;;;;2602810;54;19966;31
2022/04/08 06:35:35;;;;;;;;;;;9.70;99.90;;;;;;2602982;54;20672;31
2022/04/08 06:38:10;;;;;;;;;;;9.70;99.90;;;;;;2621443;46;20709;31
2022/04/08 06:40:46;;;;;;;;;;;9.80;99.90;;;;;;2621690;46;19934;31
2022/04/08 06:43:20;;;;;;;;;;;9.90;99.90;;;;;;2603131;54;19935;31
2022/04/08 06:46:00;;;;;;;;;;;10.00;99.90;;;;;;2602809;54;19947;31
2022/04/08 06:48:37;;;;;;;;;;;10.10;99.90;;;;;;2602975;54;20680;31
2022/04/08 06:51:14;;;;;;;;;;;10.10;99.90;;;;;;2602854;54;19934;31
2022/04/08 06:53:50;;;;;;;;;;;10.10;99.90;;;;;;2603010;54;19946;31
2022/04/08 06:56:28;;;;;;;;;;;10.00;99.90;;;;;;2621510;46;20732;31
2022/04/08 06:59:06;;;;;;;;;;;9.90;99.90;;;;;;2603091;54;19943;31
2022/04/08 07:01:46;;;;;;;;;;;9.90;99.90;;;;;;2603246;54;20771;31
2022/04/08 07:04:26;;;;;;;;;;;9.80;99.90;;;;;;2603172;54;20783;31
2022/04/08 07:07:13;;;;;;;;;;;9.90;99.90;;;;;;2621284;46;20787;31
2022/04/08 07:09:51;;;;;;;;;;;9.90;99.90;;;;;;2603052;54;20021;31
2022/04/08 07:12:34;;;;;;;;;;;9.90;99.90;;;;;;2607229;46;19936;31
2022/04/08 07:15:13;;;;;;;;;;;9.90;99.90;;;;;;2602669;54;20791;31
2022/04/08 07:17:56;;;;;;;;;;;9.90;99.90;;;;;;2602923;54;20046;31
2022/04/08 07:20:33;;;;;;;;;;;9.90;99.90;;;;;;2603215;54;20750;31
2022/04/08 07:23:10;;;;;;;;;;;9.90;99.90;;;;;;2602695;54;20708;31
2022/04/08 07:25:53;;;;;;;;;;;9.90;99.90;;;;;;2602808;54;19935;31
2022/04/08 07:28:30;;;;;;;;;;;9.80;99.90;;;;;;2602606;54;19950;31
2022/04/08 07:31:04;;;;;;;;;;;9.80;99.90;;;;;;2621473;46;19941;31
2022/04/08 07:33:42;;;;;;;;;;;9.70;99.90;;;;;;2602752;54;20697;31
2022/04/08 07:36:19;;;;;;;;;;;9.70;99.90;;;;;;2602245;54;19935;31
2022/04/08 07:38:55;;;;;;;;;;;9.60;99.90;;;;;;2602152;54;20692;31
2022/04/08 07:41:29;;;;;;;;;;;9.70;99.90;;;;;;2621203;46;20688;31
2022/04/08 07:44:05;;;;;;;;;;;9.70;99.90;;;;;;2603036;54;19934;31
2022/04/08 07:46:40;;;;;;;;;;;9.70;99.90;;;;;;2603036;54;20805;31
2022/04/08 07:49:16;;;;;;;;;;;9.70;99.90;;;;;;2602908;54;20730;31
2022/04/08 07:51:54;;;;;;;;;;;9.80;99.90;;;;;;2621484;46;20781;31
2022/04/08 07:54:29;;;;;;;;;;;9.80;99.90;;;;;;2612181;46;19934;31
2022/04/08 07:57:09;;;;;;;;;;;9.80;99.90;;;;;;2602117;54;19997;31
2022/04/08 07:59:45;;;;;;;;;;;9.80;99.90;;;;;;2602986;54;19995;31
2022/04/08 08:02:23;;;;;;;;;;;9.80;99.90;;;;;;2602857;54;20054;31
2022/04/08 08:04:58;;;;;;;;;;;9.80;99.90;;;;;;2602119;54;20748;31
2022/04/08 08:07:45;;;;;;;;;;;9.90;99.90;;;;;;2601983;54;19966;31
2022/04/08 08:10:20;;;;;;;;;;;9.90;99.90;;;;;;2602774;54;19960;31
2022/04/08 08:12:57;;;;;;;;;;;10.00;99.90;;;;;;2772836;31;21042;31
2022/04/08 08:15:32;;;;;;;;;;;10.10;99.90;;;;;;2621076;46;19935;31
2022/04/08 08:18:08;;;;;;;;;;;10.20;99.90;;;;;;2602763;54;20674;31
2022/04/08 08:20:43;;;;;;;;;;;10.20;99.90;;;;;;2602000;54;19942;31
2022/04/08 08:23:21;;;;;;;;;;;10.30;99.90;;;;;;2601922;54;20705;31
2022/04/08 08:25:58;;;;;;;;;;;10.30;99.90;;;;;;2621368;46;19994;31
2022/04/08 08:28:40;;;;;;;;;;;10.30;99.90;;;;;;2602805;54;21749;31
2022/04/08 08:31:16;;;;;;;;;;;10.20;99.90;;;;;;2602882;54;20660;31
2022/04/08 08:33:51;;;;;;;;;;;10.20;99.90;;;;;;2621401;46;20807;31
2022/04/08 08:36:27;;;;;;;;;;;10.20;99.90;;;;;;2602627;54;20828;31
2022/04/08 08:39:03;;;;;;;;;;;10.10;99.90;;;;;;2602799;54;19938;31
2022/04/08 08:41:42;;;;;;;;;;;10.00;99.90;;;;;;2602430;54;19942;31
2022/04/08 08:44:19;;;;;;;;;;;10.00;99.90;;;;;;2621281;46;20696;31
2022/04/08 08:46:53;;;;;;;;;;;10.00;99.90;;;;;;2621312;46;21194;31
2022/04/08 08:49:28;;;;;;;;;;;10.00;99.90;;;;;;2602612;54;19942;31
2022/04/08 08:52:06;;;;;;;;;;;10.00;99.90;;;;;;2602464;54;20716;31
2022/04/08 08:54:41;;;;;;;;;;;10.00;99.90;;;;;;2602534;54;20013;31
2022/04/08 08:57:21;;;;;;;;;;;10.00;99.90;;;;;;2602602;54;21142;31
2022/04/08 08:59:58;;;;;;;;;;;9.90;99.90;;;;;;2602660;54;20632;31
2022/04/08 09:02:34;;;;;;;;;;;9.90;99.90;;;;;;2621157;47;19934;31
2022/04/08 09:05:08;;;;;;;;;;;9.80;99.90;;;;;;2602604;54;19934;31
2022/04/08 09:07:45;;;;;;;;;;;9.60;99.90;;;;;;2621192;47;19935;31
2022/04/08 09:10:27;;;;;;;;;;;9.30;99.90;;;;;;2602536;54;19934;31
2022/04/08 09:13:10;;;;;;;;;;;9.10;99.90;;;;;;2601943;54;19950;31
2022/04/08 09:15:54;;;;;;;;;;;9.30;99.90;;;;;;2621126;47;19934;31
2022/04/08 09:18:31;;;;;;;;;;;9.10;99.90;;;;;;2602626;54;19935;31
2022/04/08 09:21:11;;;;;;;;;;;9.60;99.90;;;;;;2621155;47;19942;31
2022/04/08 09:23:54;;;;;;;;;;;10.00;99.90;;;;;;2620862;47;19934;31
2022/04/08 09:26:47;;;;;;;;;;;10.50;99.90;;;;;;2602305;54;19946;31
2022/04/08 09:29:27;;;;;;;;;;;11.00;99.90;;;;;;2621329;47;20753;31
2022/04/08 09:32:24;;;;;;;;;;;11.10;99.90;;;;;;2620870;47;19958;31
2022/04/08 09:35:18;;;;;;;;;;;11.10;99.90;;;;;;2602485;54;20752;31
2022/04/08 09:38:01;;;;;;;;;;;11.10;99.90;;;;;;2621002;47;20810;31
2022/04/08 09:40:42;;;;;;;;;;;11.30;99.90;;;;;;2620998;47;20668;31
2022/04/08 09:43:19;;;;;;;;;;;11.60;99.90;;;;;;2601656;54;19994;31
2022/04/08 09:48:51;;;;;;;;;;;12.00;99.90;;;;;;2602374;54;20817;31
2022/04/08 09:51:36;;;;;;;;;;;12.40;99.90;;;;;;2621358;47;20747;31
2022/04/08 09:54:12;;;;;;;;;;;12.70;99.90;;;;;;2614811;46;20066;31
2022/04/08 09:56:49;;;;;;;;;;;12.60;99.90;;;;;;2603269;54;19959;31
2022/04/08 09:59:31;;;;;;;;;;;12.50;99.90;;;;;;2603431;54;20855;31
2022/04/08 10:02:30;;;;;;;;;;;12.30;99.90;;;;;;2621594;46;20758;31
2022/04/08 10:05:14;;;;;;;;;;;12.20;99.90;;;;;;2603239;54;19934;31
2022/04/08 10:07:49;;;;;;;;;;;12.00;99.90;;;;;;2621733;46;20773;31
2022/04/08 10:10:29;;;;;;;;;;;12.00;99.90;;;;;;2622045;46;20720;31
2022/04/08 10:13:08;;;;;;;;;;;12.00;99.90;;;;;;2602406;54;20782;31
2022/04/08 10:15:48;;;;;;;;;;;11.90;99.90;;;;;;2603240;54;19942;31
2022/04/08 10:18:34;;;;;;;;;;;11.80;99.90;;;;;;2602505;54;19964;31
2022/04/08 10:21:10;;;;;;;;;;;11.90;99.90;;;;;;2621489;46;20749;31
2022/04/08 10:23:48;;;;;;;;;;;12.20;99.90;;;;;;2720235;39;20530;31
2022/04/08 10:26:27;;;;;;;;;;;12.50;99.90;;;;;;2603237;54;20831;31
2022/04/08 10:29:11;;;;;;;;;;;12.60;99.90;;;;;;2602734;54;21919;31
2022/04/08 10:31:46;;;;;;;;;;;12.60;99.90;;;;;;2603515;54;20714;31
2022/04/08 10:34:26;;;;;;;;;;;12.70;99.90;;;;;;2602967;54;19935;31
2022/04/08 10:37:01;;;;;;;;;;;12.70;99.90;;;;;;2621923;46;19939;31
2022/04/08 10:39:36;;;;;;;;;;;12.60;99.90;;;;;;2622099;46;20761;31
2022/04/08 10:42:34;;;;;;;;;;;12.60;99.90;;;;;;2621496;46;20731;31
2022/04/08 10:45:16;;;;;;;;;;;12.70;99.90;;;;;;2602983;54;19941;31
2022/04/08 10:47:51;;;;;;;;;;;13.10;99.90;;;;;;2603199;54;20769;31
2022/04/08 10:50:29;;;;;;;;;;;13.40;99.90;;;;;;2602658;54;19942;31
2022/04/08 10:53:08;;;;;;;;;;;13.60;99.90;;;;;;2603140;54;20811;31
2022/04/08 10:55:50;;;;;;;;;;;13.70;99.90;;;;;;2603356;54;19934;31
2022/04/08 10:58:34;;;;;;;;;;;13.60;99.90;;;;;;2603456;54;19934;31
2022/04/08 11:01:16;;;;;;;;;;;13.60;99.90;;;;;;2603129;54;20033;31
2022/04/08 11:03:55;;;;;;;;;;;13.60;99.90;;;;;;2603402;54;20783;31
2022/04/08 11:06:33;;;;;;;;;;;13.50;99.90;;;;;;2621648;46;19935;31
2022/04/08 11:09:12;;;;;;;;;;;13.50;99.90;;;;;;2603094;54;19941;31
2022/04/08 11:11:52;;;;;;;;;;;13.70;99.90;;;;;;2603219;54;19935;31
2022/04/08 11:14:33;;;;;;;;;;;13.70;99.90;;;;;;2603316;54;19946;31
2022/04/08 11:17:10;;;;;;;;;;;13.90;99.90;;;;;;2603572;54;19935;31
2022/04/08 11:19:53;;;;;;;;;;;14.10;99.90;;;;;;2603321;54;20785;31
2022/04/08 11:22:32;;;;;;;;;;;14.10;99.90;;;;;;2621987;46;20025;31
2022/04/08 11:25:24;;;;;;;;;;;14.20;99.90;;;;;;2621863;46;19942;31
2022/04/08 11:28:04;;;;;;;;;;;14.30;99.90;;;;;;2603383;54;20680;31
2022/04/08 11:30:56;;;;;;;;;;;14.30;99.90;;;;;;2621442;46;20825;31
2022/04/08 11:33:40;;;;;;;;;;;14.20;99.90;;;;;;2603046;54;20781;31
2022/04/08 11:36:31;;;;;;;;;;;14.30;99.90;;;;;;2602619;54;20041;31
2022/04/08 11:39:07;;;;;;;;;;;14.30;99.90;;;;;;2616114;46;19946;31
2022/04/08 11:41:45;;;;;;;;;;;14.30;99.00;;;;;;2602492;54;20001;31
2022/04/08 11:44:27;;;;;;;;;;;14.30;98.30;;;;;;2603142;54;19935;31
2022/04/08 11:47:11;;;;;;;;;;;14.20;97.00;;;;;;2603042;54;19946;31
2022/04/08 11:49:46;;;;;;;;;;;14.20;98.20;;;;;;2621608;46;19997;31
2022/04/08 11:52:21;;;;;;;;;;;14.20;98.30;;;;;;2602610;54;20765;31
2022/04/08 11:55:01;;;;;;;;;;;14.20;98.50;;;;;;2602925;54;19935;31
2022/04/08 11:57:58;;;;;;;;;;;14.20;97.00;;;;;;2603006;54;19935;31
2022/04/08 12:00:36;;;;;;;;;;;14.20;96.30;;;;;;2603138;54;20678;31
2022/04/08 12:03:22;;;;;;;;;;;14.10;95.20;;;;;;2621600;46;19960;31
2022/04/08 12:06:19;;;;;;;;;;;14.10;95.50;;;;;;2603027;54;19939;31
2022/04/08 12:09:08;;;;;;;;;;;14.10;96.30;;;;;;2603230;54;20715;31
2022/04/08 12:11:43;;;;;;;;;;;14.10;95.40;;;;;;2621434;46;20053;31
2022/04/08 12:14:29;;;;;;;;;;;14.10;95.70;;;;;;2602038;54;20828;31
2022/04/08 12:17:17;;;;;;;;;;;14.00;94.70;;;;;;2602992;54;19941;31
2022/04/08 12:20:11;;;;;;;;;;;13.90;95.20;;;;;;2621288;46;20882;31
2022/04/08 12:22:54;;;;;;;;;;;13.90;94.80;;;;;;2603319;54;20751;31
2022/04/08 12:25:29;;;;;;;;;;;13.90;94.80;;;;;;2621243;46;19958;31
2022/04/08 12:28:07;;;;;;;;;;;13.90;94.90;;;;;;2602967;54;19934;31
2022/04/08 12:30:46;;;;;;;;;;;14.00;95.10;;;;;;2621202;46;20816;31
2022/04/08 12:36:55;;;;;;;;;;;14.00;94.40;;;;;;2603126;54;20830;31
2022/04/08 12:45:43;;;;;;;;;;;14.00;93.10;;;;;;2621639;46;19941;31
2022/04/08 12:51:35;;;;;;;;;;;14.10;93.40;;;;;;2603132;54;20647;31
2022/04/08 12:54:12;;;;;;;;;;;14.10;92.60;;;;;;2603063;54;19934;31
2022/04/08 12:56:49;;;;;;;;;;;14.10;92.90;;;;;;2603030;54;19935;31
2022/04/08 13:02:10;;;;;;;;;;;14.20;91.50;;;;;;2603018;54;19967;31
2022/04/08 13:04:47;;;;;;;;;;;14.10;90.90;;;;;;2621262;47;20685;31
2022/04/08 13:07:24;;;;;;;;;;;13.90;90.70;;;;;;2621518;47;19942;31
2022/04/08 13:09:59;;;;;;;;;;;14.00;92.20;;;;;;2603061;54;19989;31
2022/04/08 13:12:38;;;;;;;;;;;14.00;91.80;;;;;;2621388;47;20023;31
2022/04/08 13:15:14;;;;;;;;;;;13.90;90.70;;;;;;2603070;54;20767;31
2022/04/08 13:17:53;;;;;;;;;;;13.90;90.30;;;;;;2621274;47;19990;31
2022/04/08 13:20:30;;;;;;;;;;;13.90;91.70;;;;;;2621484;47;19939;31
2022/04/08 13:25:53;;;;;;;;;;;13.80;90.80;;;;;;2602805;54;20769;31
2022/04/08 13:28:35;;;;;;;;;;;13.80;91.20;;;;;;2603430;54;19934;31
2022/04/08 13:31:19;;;;;;;;;;;13.70;91.50;;;;;;2622125;46;20796;31
2022/04/08 13:33:58;;;;;;;;;;;13.70;91.10;;;;;;2603474;54;19935;31
2022/04/08 13:36:52;;;;;;;;;;;13.60;91.30;;;;;;2603611;54;19989;31
2022/04/08 13:39:29;;;;;;;;;;;13.70;90.90;;;;;;2603274;54;19939;31
2022/04/08 13:42:03;;;;;;;;;;;13.80;91.10;;;;;;2603467;54;20009;31
2022/04/08 13:44:38;;;;;;;;;;;13.80;91.50;;;;;;2603651;54;19934;31
2022/04/08 13:47:12;;;;;;;;;;;13.70;91.60;;;;;;2621911;46;20759;31
2022/04/08 13:49:49;;;;;;;;;;;13.70;91.60;;;;;;2603392;54;19935;31
2022/04/08 13:52:27;;;;;;;;;;;13.60;92.10;;;;;;2622122;46;20784;31
2022/04/08 13:55:05;;;;;;;;;;;13.60;91.60;;;;;;2622335;46;19969;31
2022/04/08 13:57:40;;;;;;;;;;;13.60;91.60;;;;;;2622340;46;20763;31
2022/04/08 14:00:17;;;;;;;;;;;13.50;91.60;;;;;;2603148;54;20694;31
2022/04/08 14:02:53;;;;;;;;;;;13.40;91.10;;;;;;2720288;39;21585;31
2022/04/08 14:05:30;;;;;;;;;;;13.40;91.80;;;;;;2603237;54;19942;31
2022/04/08 14:08:14;;;;;;;;;;;13.40;91.50;;;;;;2603322;54;19939;31
2022/04/08 14:10:48;;;;;;;;;;;13.40;92.10;;;;;;2620655;46;19938;31
2022/04/08 14:13:27;;;;;;;;;;;13.40;92.00;;;;;;2622080;46;19943;31
2022/04/08 14:16:03;;;;;;;;;;;13.30;92.30;;;;;;2602727;54;19934;31
2022/04/08 14:18:38;;;;;;;;;;;13.30;92.10;;;;;;2603582;54;19961;31
2022/04/08 14:21:13;;;;;;;;;;;13.20;92.40;;;;;;2621773;46;19935;31
2022/04/08 14:23:55;;;;;;;;;;;13.20;92.60;;;;;;2619832;46;20672;31
2022/04/08 14:26:32;;;;;;;;;;;13.10;93.30;;;;;;2604503;46;20004;31
2022/04/08 14:29:07;;;;;;;;;;;13.10;93.50;;;;;;2602258;54;19997;31
2022/04/08 14:31:45;;;;;;;;;;;13.00;94.10;;;;;;2602231;54;19950;31
2022/04/08 14:34:21;;;;;;;;;;;12.90;93.20;;;;;;2602601;54;20009;31
2022/04/08 14:36:59;;;;;;;;;;;12.90;92.80;;;;;;2621640;46;19938;31
2022/04/08 14:39:38;;;;;;;;;;;12.90;92.70;;;;;;2603336;54;19957;31
2022/04/08 14:42:13;;;;;;;;;;;12.80;92.40;;;;;;2603466;54;20675;31
2022/04/08 14:44:52;;;;;;;;;;;12.70;92.60;;;;;;2603202;54;19939;31
2022/04/08 14:47:30;;;;;;;;;;;12.70;93.50;;;;;;2602385;54;19946;31
2022/04/08 14:50:06;;;;;;;;;;;12.60;92.60;;;;;;2602246;54;20854;31
2022/04/08 14:52:41;;;;;;;;;;;12.60;93.30;;;;;;2603381;54;19989;31
2022/04/08 14:55:19;;;;;;;;;;;12.50;94.00;;;;;;2603026;54;19942;31
2022/04/08 14:58:01;;;;;;;;;;;12.50;95.10;;;;;;2603443;54;20449;31
2022/04/08 15:00:36;;;;;;;;;;;12.50;95.60;;;;;;2603162;54;19935;31
2022/04/08 15:03:12;;;;;;;;;;;12.50;95.60;;;;;;2621886;46;19945;31
2022/04/08 15:05:50;;;;;;;;;;;12.50;95.40;;;;;;2621859;46;19947;31
2022/04/08 15:08:27;;;;;;;;;;;12.50;95.30;;;;;;2602892;54;19986;31
2022/04/08 15:11:05;;;;;;;;;;;12.40;95.20;;;;;;2609957;46;19935;31
2022/04/08 15:13:44;;;;;;;;;;;12.40;95.90;;;;;;2621656;46;19946;31
2022/04/08 15:16:19;;;;;;;;;;;12.40;95.60;;;;;;2603131;54;19934;31
2022/04/08 15:18:54;;;;;;;;;;;12.40;95.80;;;;;;2603320;54;19946;31
2022/04/08 15:21:31;;;;;;;;;;;12.40;96.00;;;;;;2603167;54;19943;31
2022/04/08 15:24:05;;;;;;;;;;;12.40;95.60;;;;;;2603080;54;20804;31
2022/04/08 15:26:40;;;;;;;;;;;12.40;95.80;;;;;;2603182;54;19942;31
2022/04/08 15:29:18;;;;;;;;;;;12.40;96.20;;;;;;2621372;46;19942;31
2022/04/08 15:31:53;;;;;;;;;;;12.40;95.90;;;;;;2621891;46;20748;31
2022/04/08 15:34:28;;;;;;;;;;;12.40;96.00;;;;;;2603131;54;19935;31
2022/04/08 15:37:05;;;;;;;;;;;12.30;95.00;;;;;;2603296;54;19946;31
2022/04/08 15:39:43;;;;;;;;;;;12.30;95.50;;;;;;2621706;46;19935;31
2022/04/08 15:42:19;;;;;;;;;;;12.20;94.60;;;;;;2603260;54;19939;31
2022/04/08 15:44:56;;;;;;;;;;;12.20;94.60;;;;;;2621528;46;19941;31
2022/04/08 15:47:34;;;;;;;;;;;12.00;93.80;;;;;;2621653;46;19941;31
2022/04/08 15:50:09;;;;;;;;;;;11.90;94.60;;;;;;2602047;54;19942;31
2022/04/08 15:52:47;;;;;;;;;;;11.70;93.80;;;;;;2618875;46;19941;31
2022/04/08 15:55:23;;;;;;;;;;;11.50;94.60;;;;;;2602930;54;19934;31
2022/04/08 15:58:03;;;;;;;;;;;11.40;96.20;;;;;;2603010;54;20029;31
2022/04/08 16:00:43;;;;;;;;;;;11.20;98.90;;;;;;2621391;46;19942;31
2022/04/08 16:03:21;;;;;;;;;;;10.90;99.90;;;;;;2602855;54;19941;31